createdAt,value
2022-12-29T00:01:07.676Z,98468.30
2022-12-29T00:03:35.410Z,98473.30
2022-12-29T00:06:03.252Z,98473.47
2022-12-29T00:08:40.869Z,98485.00
2022-12-29T00:11:13.813Z,98480.23
2022-12-29T00:14:00.176Z,98483.14
2022-12-29T00:16:29.333Z,98480.70
2022-12-29T00:18:57.103Z,98479.05
2022-12-29T00:21:44.840Z,98469.06
2022-12-29T00:24:34.942Z,98469.03
2022-12-29T00:27:26.272Z,98483.33
2022-12-29T00:30:12.324Z,98484.56
2022-12-29T00:32:58.384Z,98479.45
2022-12-29T00:35:45.716Z,98472.16
2022-12-29T00:38:33.401Z,98470.55
2022-12-29T00:41:19.488Z,98473.66
2022-12-29T00:44:05.346Z,98470.61
2022-12-29T00:46:38.434Z,98477.20
2022-12-29T00:49:27.583Z,98479.52
2022-12-29T00:51:59.794Z,98479.97
2022-12-29T00:54:31.130Z,98475.13
2022-12-29T00:56:58.986Z,98479.33
2022-12-29T00:59:26.970Z,98473.44
2022-12-29T01:01:56.027Z,98479.69
2022-12-29T01:04:26.106Z,98474.14
2022-12-29T01:06:54.261Z,98480.56
2022-12-29T01:09:40.998Z,98481.89
2022-12-29T01:12:10.124Z,98480.39
2022-12-29T01:14:38.712Z,98473.27
2022-12-29T01:17:07.174Z,98473.55
2022-12-29T01:19:43.560Z,98474.61
2022-12-29T01:22:18.617Z,98476.46
2022-12-29T01:24:55.994Z,98466.62
2022-12-29T01:27:27.521Z,98467.95
2022-12-29T01:29:55.868Z,98461.50
2022-12-29T01:32:28.365Z,98460.98
2022-12-29T01:35:00.245Z,98463.64
2022-12-29T01:37:36.282Z,98455.66
2022-12-29T01:40:09.784Z,98452.18
2022-12-29T01:42:43.900Z,98449.52
2022-12-29T01:45:26.715Z,98445.31
2022-12-29T01:48:09.135Z,98435.67
2022-12-29T01:50:49.853Z,98438.30
2022-12-29T01:53:27.872Z,98435.11
2022-12-29T01:56:01.168Z,98433.02
2022-12-29T01:58:33.683Z,98436.55
2022-12-29T02:01:02.719Z,98441.98
2022-12-29T02:03:33.128Z,98437.25
2022-12-29T02:06:09.362Z,98432.48
2022-12-29T02:08:41.011Z,98428.55
2022-12-29T02:11:09.011Z,98422.59
2022-12-29T02:13:36.664Z,98425.78
2022-12-29T02:16:32.652Z,98424.67
2022-12-29T02:19:29.921Z,98426.59
2022-12-29T02:22:11.610Z,98428.55
2022-12-29T02:25:32.092Z,98433.17
2022-12-29T02:28:21.810Z,98427.63
2022-12-29T02:31:09.559Z,98412.01
2022-12-29T02:34:16.204Z,98411.07
2022-12-29T02:37:03.350Z,98408.06
2022-12-29T02:39:43.981Z,98406.91
2022-12-29T02:42:32.983Z,98402.00
2022-12-29T02:45:24.279Z,98401.37
2022-12-29T02:48:05.578Z,98402.88
2022-12-29T02:50:53.675Z,98404.42
2022-12-29T02:53:24.044Z,98398.08
2022-12-29T02:55:52.874Z,98395.11
2022-12-29T02:58:23.833Z,98394.83
2022-12-29T03:01:30.601Z,98397.20
2022-12-29T03:04:29.857Z,98396.62
2022-12-29T03:07:02.878Z,98401.94
2022-12-29T03:09:48.014Z,98396.86
2022-12-29T03:12:21.161Z,98391.29
2022-12-29T03:15:27.583Z,98390.48
2022-12-29T03:18:07.349Z,98388.52
2022-12-29T03:20:40.118Z,98386.91
2022-12-29T03:23:09.099Z,98382.50
2022-12-29T03:25:41.283Z,98384.81
2022-12-29T03:28:19.200Z,98388.62
2022-12-29T03:30:51.596Z,98387.42
2022-12-29T03:33:33.392Z,98387.18
2022-12-29T03:36:09.848Z,98389.56
2022-12-29T03:38:51.218Z,98396.95
2022-12-29T03:41:27.619Z,98389.15
2022-12-29T03:44:04.770Z,98389.92
2022-12-29T03:46:40.985Z,98399.17
2022-12-29T03:49:21.662Z,98401.27
2022-12-29T03:51:55.442Z,98402.53
2022-12-29T03:54:38.679Z,98400.05
2022-12-29T03:57:19.344Z,98395.36
2022-12-29T03:59:52.305Z,98406.35
2022-12-29T04:02:24.438Z,98398.37
2022-12-29T04:04:53.295Z,98397.56
2022-12-29T04:07:20.947Z,98397.80
2022-12-29T04:09:49.638Z,98395.95
2022-12-29T04:12:19.304Z,98395.64
2022-12-29T04:14:47.696Z,98392.69
2022-12-29T04:17:15.406Z,98392.41
2022-12-29T04:19:44.218Z,98395.07
2022-12-29T04:22:12.433Z,98392.69
2022-12-29T04:24:40.819Z,98399.52
2022-12-29T04:27:10.190Z,98400.81
2022-12-29T04:29:42.567Z,98399.97
2022-12-29T04:32:27.010Z,98400.33
2022-12-29T04:34:56.001Z,98392.30
2022-12-29T04:37:23.676Z,98399.52
2022-12-29T04:39:51.680Z,98392.59
2022-12-29T04:42:19.843Z,98397.73
2022-12-29T04:44:47.814Z,98405.55
2022-12-29T04:47:20.275Z,98406.45
2022-12-29T04:49:52.500Z,98404.15
2022-12-29T04:52:39.353Z,98402.60
2022-12-29T04:55:09.152Z,98410.52
2022-12-29T04:57:37.329Z,98413.36
2022-12-29T05:00:06.754Z,98409.82
2022-12-29T05:02:38.204Z,98415.14
2022-12-29T05:05:07.398Z,98414.27
2022-12-29T05:07:37.621Z,98416.09
2022-12-29T05:10:06.983Z,98410.41
2022-12-29T05:12:37.698Z,98410.63
2022-12-29T05:15:08.568Z,98412.44
2022-12-29T05:17:36.594Z,98401.96
2022-12-29T05:20:06.988Z,98410.64
2022-12-29T05:22:37.386Z,98409.17
2022-12-29T05:25:07.082Z,98413.33
2022-12-29T05:27:37.139Z,98410.45
2022-12-29T05:30:13.408Z,98408.60
2022-12-29T05:32:41.675Z,98402.76
2022-12-29T05:35:09.532Z,98405.25
2022-12-29T05:37:37.105Z,98407.45
2022-12-29T05:40:06.235Z,98405.64
2022-12-29T05:42:33.942Z,98403.58
2022-12-29T05:45:21.288Z,98404.62
2022-12-29T05:48:05.163Z,98403.93
2022-12-29T05:50:43.434Z,98401.80
2022-12-29T05:53:12.775Z,98400.22
2022-12-29T05:55:46.575Z,98400.15
2022-12-29T05:58:10.977Z,98398.81
2022-12-29T06:00:38.771Z,98401.48
2022-12-29T06:03:06.998Z,98399.66
2022-12-29T06:05:35.259Z,98390.27
2022-12-29T06:08:03.096Z,98394.33
2022-12-29T06:10:30.957Z,98394.09
2022-12-29T06:13:00.246Z,98384.49
2022-12-29T06:15:28.157Z,98384.49
2022-12-29T06:17:56.200Z,98377.87
2022-12-29T06:20:23.927Z,98386.84
2022-12-29T06:22:51.705Z,98391.71
2022-12-29T06:25:19.420Z,98388.14
2022-12-29T06:27:47.765Z,98387.20
2022-12-29T06:30:16.533Z,98391.02
2022-12-29T06:32:46.526Z,98396.86
2022-12-29T06:35:14.958Z,98395.25
2022-12-29T06:37:47.102Z,98391.29
2022-12-29T06:40:15.424Z,98395.11
2022-12-29T06:43:01.890Z,98403.23
2022-12-29T06:45:31.436Z,98395.59
2022-12-29T06:47:58.872Z,98404.95
2022-12-29T06:50:26.533Z,98409.22
2022-12-29T06:52:54.426Z,98409.22
2022-12-29T06:55:22.801Z,98416.02
2022-12-29T06:57:50.312Z,98414.44
2022-12-29T07:00:22.669Z,98419.30
2022-12-29T07:02:47.825Z,98417.27
2022-12-29T07:05:15.867Z,98416.22
2022-12-29T07:07:44.276Z,98420.50
2022-12-29T07:10:12.392Z,98418.70
2022-12-29T07:12:39.964Z,98420.97
2022-12-29T07:15:08.506Z,98417.29
2022-12-29T07:17:36.786Z,98418.44
2022-12-29T07:20:05.654Z,98416.92
2022-12-29T07:22:33.526Z,98422.41
2022-12-29T07:25:01.282Z,98417.24
2022-12-29T07:27:28.888Z,98420.25
2022-12-29T07:29:56.480Z,98416.31
2022-12-29T07:32:24.174Z,98414.20
2022-12-29T07:34:52.452Z,98406.20
2022-12-29T07:37:20.410Z,98409.46
2022-12-29T07:39:48.170Z,98404.41
2022-12-29T07:42:16.178Z,98408.96
2022-12-29T07:44:47.650Z,98406.11
2022-12-29T07:47:29.284Z,98404.89
2022-12-29T07:49:56.829Z,98404.17
2022-12-29T07:52:24.645Z,98401.06
2022-12-29T07:54:52.073Z,98399.55
2022-12-29T07:57:19.631Z,98403.94
2022-12-29T07:59:47.295Z,98404.77
2022-12-29T08:02:14.998Z,98399.55
2022-12-29T08:04:42.855Z,98408.10
2022-12-29T08:07:10.324Z,98415.97
2022-12-29T08:09:38.119Z,98406.71
2022-12-29T08:12:06.217Z,98410.84
2022-12-29T08:14:33.821Z,98410.45
2022-12-29T08:17:02.435Z,98406.53
2022-12-29T08:19:30.249Z,98400.78
2022-12-29T08:21:57.830Z,98407.63
2022-12-29T08:24:25.739Z,98406.70
2022-12-29T08:26:53.715Z,98401.48
2022-12-29T08:29:21.878Z,98399.42
2022-12-29T08:31:49.633Z,98404.34
2022-12-29T08:34:17.381Z,98402.38
2022-12-29T08:36:45.495Z,98408.37
2022-12-29T08:39:13.164Z,98406.87
2022-12-29T08:41:40.865Z,98410.19
2022-12-29T08:44:08.822Z,98414.05
2022-12-29T08:46:36.624Z,98405.90
2022-12-29T08:49:04.009Z,98394.50
2022-12-29T08:51:31.853Z,98394.87
2022-12-29T08:54:00.147Z,98389.57
2022-12-29T08:56:28.568Z,98400.13
2022-12-29T08:58:57.468Z,98399.14
2022-12-29T09:01:25.804Z,98395.22
2022-12-29T09:04:14.380Z,98394.19
2022-12-29T09:06:26.720Z,98394.23
2022-12-29T09:08:56.534Z,98396.98
2022-12-29T09:11:25.969Z,98392.20
2022-12-29T09:13:54.541Z,98392.48
2022-12-29T09:16:24.678Z,98382.34
2022-12-29T09:18:52.279Z,98376.48
2022-12-29T09:21:20.193Z,98371.17
2022-12-29T09:23:49.187Z,98357.28
2022-12-29T09:26:16.658Z,98355.47
2022-12-29T09:28:44.854Z,98348.58
2022-12-29T09:31:12.866Z,98345.69
2022-12-29T09:33:40.450Z,98339.58
2022-12-29T09:36:09.430Z,98329.43
2022-12-29T09:38:37.226Z,98335.62
2022-12-29T09:41:33.198Z,98327.58
2022-12-29T09:44:15.366Z,98325.17
2022-12-29T09:46:50.547Z,98319.25
2022-12-29T09:49:40.327Z,98324.87
2022-12-29T09:52:22.239Z,98317.13
2022-12-29T09:55:13.840Z,98310.97
2022-12-29T09:58:00.531Z,98309.63
2022-12-29T10:00:57.913Z,98310.20
2022-12-29T10:03:31.131Z,98304.84
2022-12-29T10:06:22.399Z,98304.30
2022-12-29T10:09:04.835Z,98304.86
2022-12-29T10:11:52.945Z,98302.70
2022-12-29T10:14:32.171Z,98300.03
2022-12-29T10:17:14.122Z,98303.83
2022-12-29T10:20:20.476Z,98300.90
2022-12-29T10:23:18.183Z,98301.17
2022-12-29T10:25:46.744Z,98299.53
2022-12-29T10:28:25.768Z,98293.15
2022-12-29T10:30:55.304Z,98292.92
2022-12-29T10:33:28.390Z,98302.05
2022-12-29T10:35:56.586Z,98302.30
2022-12-29T10:38:38.912Z,98292.41
2022-12-29T10:41:33.278Z,98291.64
2022-12-29T10:44:01.787Z,98286.29
2022-12-29T10:46:36.008Z,98287.11
2022-12-29T10:49:07.476Z,98291.39
2022-12-29T10:51:42.309Z,98284.69
2022-12-29T10:54:23.746Z,98284.99
2022-12-29T10:56:55.953Z,98275.34
2022-12-29T10:59:28.480Z,98272.67
2022-12-29T11:02:13.747Z,98273.20
2022-12-29T11:05:18.775Z,98271.59
2022-12-29T11:07:50.732Z,98272.41
2022-12-29T11:10:39.378Z,98267.88
2022-12-29T11:13:19.911Z,98263.84
2022-12-29T11:15:50.637Z,98261.20
2022-12-29T11:18:27.813Z,98251.01
2022-12-29T11:21:00.843Z,98251.27
2022-12-29T11:23:37.016Z,98241.86
2022-12-29T11:26:24.554Z,98244.53
2022-12-29T11:29:25.619Z,98233.80
2022-12-29T11:31:58.583Z,98227.89
2022-12-29T11:34:35.248Z,98222.50
2022-12-29T11:37:13.286Z,98229.99
2022-12-29T11:39:59.888Z,98231.34
2022-12-29T11:42:49.772Z,98229.72
2022-12-29T11:45:37.581Z,98227.30
2022-12-29T11:48:16.756Z,98231.06
2022-12-29T11:50:54.712Z,98228.38
2022-12-29T11:53:27.147Z,98228.36
2022-12-29T11:56:08.840Z,98224.05
2022-12-29T11:58:38.779Z,98216.25
2022-12-29T12:01:33.179Z,98215.69
2022-12-29T12:04:08.905Z,98214.89
2022-12-29T12:06:41.837Z,98209.48
2022-12-29T12:09:27.309Z,98208.11
2022-12-29T12:11:56.143Z,98205.43
2022-12-29T12:14:50.056Z,98205.17
2022-12-29T12:17:47.063Z,98203.80
2022-12-29T12:20:29.139Z,98202.68
2022-12-29T12:23:10.705Z,98201.33
2022-12-29T12:25:46.546Z,98201.30
2022-12-29T12:28:22.492Z,98210.45
2022-12-29T12:30:54.333Z,98204.79
2022-12-29T12:33:42.392Z,98207.48
2022-12-29T12:36:29.819Z,98209.87
2022-12-29T12:39:28.715Z,98207.19
2022-12-29T12:42:27.025Z,98202.02
2022-12-29T12:45:24.155Z,98196.89
2022-12-29T12:48:17.163Z,98202.52
2022-12-29T12:50:59.528Z,98205.97
2022-12-29T12:54:02.016Z,98209.46
2022-12-29T12:56:47.393Z,98206.77
2022-12-29T12:59:28.982Z,98202.19
2022-12-29T13:02:22.985Z,98191.43
2022-12-29T13:05:29.209Z,98186.84
2022-12-29T13:08:08.240Z,98180.63
2022-12-29T13:10:53.538Z,98180.33
2022-12-29T13:13:58.777Z,98178.17
2022-12-29T13:16:47.209Z,98173.01
2022-12-29T13:19:35.565Z,98166.81
2022-12-29T13:22:23.670Z,98163.57
2022-12-29T13:25:23.683Z,98160.88
2022-12-29T13:28:22.660Z,98162.24
2022-12-29T13:31:17.006Z,98163.94
2022-12-29T13:34:08.325Z,98166.72
2022-12-29T13:36:46.868Z,98171.85
2022-12-29T13:39:23.231Z,98169.45
2022-12-29T13:41:54.682Z,98158.99
2022-12-29T13:44:36.106Z,98164.16
2022-12-29T13:47:04.835Z,98160.42
2022-12-29T13:49:33.985Z,98165.51
2022-12-29T13:52:06.970Z,98175.46
2022-12-29T13:54:42.851Z,98178.15
2022-12-29T13:58:08.105Z,98173.56
2022-12-29T14:01:18.572Z,98177.06
2022-12-29T14:03:51.087Z,98181.09
2022-12-29T14:06:34.260Z,98182.41
2022-12-29T14:09:05.992Z,98176.22
2022-12-29T14:11:37.935Z,98178.11
2022-12-29T14:14:25.212Z,98182.19
2022-12-29T14:16:53.878Z,98180.59
2022-12-29T14:19:31.869Z,98179.83
2022-12-29T14:22:05.044Z,98179.06
2022-12-29T14:24:40.705Z,98180.70
2022-12-29T14:27:17.285Z,98189.59
2022-12-29T14:29:48.529Z,98185.84
2022-12-29T14:32:30.756Z,98187.21
2022-12-29T14:35:01.548Z,98194.50
2022-12-29T14:37:35.384Z,98184.31
2022-12-29T14:40:09.411Z,98185.67
2022-12-29T14:42:40.706Z,98188.38
2022-12-29T14:45:17.486Z,98196.73
2022-12-29T14:47:48.894Z,98193.00
2022-12-29T14:50:36.666Z,98198.09
2022-12-29T14:53:07.691Z,98191.92
2022-12-29T14:55:56.572Z,98194.89
2022-12-29T14:58:50.525Z,98192.22
2022-12-29T15:01:50.805Z,98193.55
2022-12-29T15:04:22.625Z,98197.86
2022-12-29T15:06:51.290Z,98198.66
2022-12-29T15:09:39.475Z,98193.28
2022-12-29T15:12:16.750Z,98193.53
2022-12-29T15:14:57.316Z,98197.25
2022-12-29T15:17:34.756Z,98202.05
2022-12-29T15:20:24.584Z,98196.63
2022-12-29T15:23:00.799Z,98198.73
2022-12-29T15:25:29.332Z,98199.48
2022-12-29T15:28:04.823Z,98198.38
2022-12-29T15:30:34.579Z,98199.39
2022-12-29T15:33:03.227Z,98200.95
2022-12-29T15:35:36.884Z,98199.03
2022-12-29T15:38:18.711Z,98205.67
2022-12-29T15:40:46.977Z,98199.99
2022-12-29T15:43:27.027Z,98207.45
2022-12-29T15:45:55.797Z,98203.13
2022-12-29T15:48:26.110Z,98201.99
2022-12-29T15:50:55.758Z,98198.72
2022-12-29T15:53:29.923Z,98199.76
2022-12-29T15:56:07.499Z,98204.27
2022-12-29T15:58:49.041Z,98201.56
2022-12-29T16:01:30.427Z,98204.47
2022-12-29T16:04:05.225Z,98201.23
2022-12-29T16:06:36.159Z,98199.02
2022-12-29T16:09:14.667Z,98200.35
2022-12-29T16:11:50.440Z,98203.80
2022-12-29T16:14:22.259Z,98205.40
2022-12-29T16:16:51.575Z,98207.77
2022-12-29T16:19:35.912Z,98210.17
2022-12-29T16:22:23.007Z,98217.09
2022-12-29T16:24:51.447Z,98216.28
2022-12-29T16:27:23.584Z,98214.64
2022-12-29T16:29:56.301Z,98211.13
2022-12-29T16:32:28.903Z,98213.27
2022-12-29T16:35:16.482Z,98224.72
2022-12-29T16:37:44.879Z,98219.91
2022-12-29T16:40:27.868Z,98218.56
2022-12-29T16:43:01.453Z,98219.33
2022-12-29T16:45:50.917Z,98217.16
2022-12-29T16:48:22.361Z,98216.89
2022-12-29T16:50:50.457Z,98217.11
2022-12-29T16:53:25.679Z,98216.30
2022-12-29T16:55:54.680Z,98218.72
2022-12-29T16:58:27.592Z,98218.72
2022-12-29T17:00:59.996Z,98219.24
2022-12-29T17:03:36.327Z,98218.89
2022-12-29T17:06:04.118Z,98223.39
2022-12-29T17:08:43.535Z,98221.52
2022-12-29T17:11:46.469Z,98221.79
2022-12-29T17:14:28.272Z,98213.77
2022-12-29T17:16:56.043Z,98205.80
2022-12-29T17:19:34.209Z,98217.28
2022-12-29T17:22:03.543Z,98223.39
2022-12-29T17:24:31.525Z,98217.47
2022-12-29T17:27:00.379Z,98211.89
2022-12-29T17:29:40.186Z,98206.60
2022-12-29T17:32:12.965Z,98209.32
2022-12-29T17:34:41.697Z,98205.34
2022-12-29T17:37:26.777Z,98207.76
2022-12-29T17:39:54.309Z,98207.22
2022-12-29T17:42:21.823Z,98219.02
2022-12-29T17:44:49.485Z,98216.92
2022-12-29T17:47:17.312Z,98217.73
2022-12-29T17:49:48.165Z,98216.13
2022-12-29T17:52:17.396Z,98220.09
2022-12-29T17:54:52.165Z,98224.36
2022-12-29T17:57:22.117Z,98219.02
2022-12-29T17:59:49.932Z,98222.05
2022-12-29T18:02:32.487Z,98219.91
2022-12-29T18:05:00.195Z,98217.31
2022-12-29T18:07:34.068Z,98217.05
2022-12-29T18:09:59.007Z,98217.05
2022-12-29T18:12:37.263Z,98218.38
2022-12-29T18:15:07.976Z,98213.57
2022-12-29T18:17:35.956Z,98209.56
2022-12-29T18:20:04.085Z,98208.53
2022-12-29T18:22:32.040Z,98200.82
2022-12-29T18:25:01.373Z,98204.56
2022-12-29T18:27:29.401Z,98213.11
2022-12-29T18:29:57.229Z,98222.97
2022-12-29T18:32:25.088Z,98216.55
2022-12-29T18:34:52.792Z,98218.11
2022-12-29T18:37:20.505Z,98210.33
2022-12-29T18:39:47.952Z,98212.70
2022-12-29T18:42:18.006Z,98209.75
2022-12-29T18:44:45.740Z,98207.88
2022-12-29T18:47:13.334Z,98208.95
2022-12-29T18:49:40.953Z,98208.98
2022-12-29T18:52:12.985Z,98202.30
2022-12-29T18:54:40.496Z,98203.69
2022-12-29T18:57:08.063Z,98192.20
2022-12-29T18:59:36.141Z,98190.12
2022-12-29T19:02:03.601Z,98174.92
2022-12-29T19:04:31.172Z,98162.16
2022-12-29T19:06:58.863Z,98151.50
2022-12-29T19:09:27.071Z,98155.23
2022-12-29T19:11:54.938Z,98164.56
2022-12-29T19:14:22.411Z,98155.47
2022-12-29T19:16:50.291Z,98151.73
2022-12-29T19:19:17.953Z,98139.70
2022-12-29T19:21:45.637Z,98140.77
2022-12-29T19:24:13.301Z,98154.11
2022-12-29T19:26:41.273Z,98151.41
2022-12-29T19:29:14.509Z,98148.73
2022-12-29T19:31:42.643Z,98155.17
2022-12-29T19:34:15.566Z,98153.03
2022-12-29T19:36:45.450Z,98164.53
2022-12-29T19:39:13.311Z,98160.25
2022-12-29T19:41:40.869Z,98161.09
2022-12-29T19:44:08.416Z,98167.27
2022-12-29T19:46:35.722Z,98173.42
2022-12-29T19:49:03.352Z,98161.12
2022-12-29T19:51:31.016Z,98149.09
2022-12-29T19:53:58.673Z,98158.45
2022-12-29T19:56:26.408Z,98158.72
2022-12-29T19:58:54.206Z,98150.45
2022-12-29T20:01:23.296Z,98159.81
2022-12-29T20:03:51.990Z,98178.27
2022-12-29T20:06:20.599Z,98180.41
2022-12-29T20:08:48.543Z,98169.14
2022-12-29T20:11:18.376Z,98166.77
2022-12-29T20:13:47.185Z,98165.97
2022-12-29T20:16:18.376Z,98159.05
2022-12-29T20:18:47.472Z,98131.27
2022-12-29T20:21:20.325Z,98142.55
2022-12-29T20:23:49.336Z,98148.47
2022-12-29T20:26:21.248Z,98160.23
2022-12-29T20:28:49.639Z,98151.67
2022-12-29T20:31:24.839Z,98154.34
2022-12-29T20:33:52.949Z,98155.72
2022-12-29T20:36:27.996Z,98162.94
2022-12-29T20:38:58.117Z,98152.77
2022-12-29T20:41:25.964Z,98148.77
2022-12-29T20:43:54.202Z,98143.91
2022-12-29T20:46:26.440Z,98128.97
2022-12-29T20:48:52.490Z,98123.91
2022-12-29T20:51:20.942Z,98132.73
2022-12-29T20:53:49.372Z,98109.98
2022-12-29T20:56:21.101Z,98125.80
2022-12-29T21:01:23.275Z,98143.19
2022-12-29T21:03:51.015Z,98141.59
2022-12-29T21:06:19.732Z,98131.69
2022-12-29T21:08:50.364Z,98138.91
2022-12-29T21:11:18.958Z,98137.58
2022-12-29T21:13:47.283Z,98141.59
2022-12-29T21:16:15.748Z,98145.36
2022-12-29T21:18:43.538Z,98141.87
2022-12-29T21:21:21.998Z,98130.91
2022-12-29T21:23:50.779Z,98126.63
2022-12-29T21:26:23.058Z,98122.34
2022-12-29T21:28:51.613Z,98129.81
2022-12-29T21:31:38.719Z,98120.75
2022-12-29T21:34:06.679Z,98121.27
2022-12-29T21:36:34.417Z,98120.20
2022-12-29T21:39:03.834Z,98121.27
2022-12-29T21:41:32.467Z,98123.95
2022-12-29T21:44:18.654Z,98120.98
2022-12-29T21:46:49.224Z,98116.98
2022-12-29T21:49:16.745Z,98115.64
2022-12-29T21:51:50.280Z,98111.33
2022-12-29T21:54:43.356Z,98112.13
2022-12-29T21:57:20.993Z,98109.46
2022-12-29T22:00:03.402Z,98107.59
2022-12-29T22:02:51.499Z,98104.91
2022-12-29T22:05:37.352Z,98100.63
2022-12-29T22:08:23.653Z,98100.92
2022-12-29T22:11:09.341Z,98100.92
2022-12-29T22:13:38.831Z,98095.84
2022-12-29T22:16:10.491Z,98092.90
2022-12-29T22:18:38.974Z,98094.23
2022-12-29T22:21:09.746Z,98096.37
2022-12-29T22:23:37.829Z,98098.52
2022-12-29T22:26:08.853Z,98097.17
2022-12-29T22:28:38.673Z,98103.06
2022-12-29T22:31:09.859Z,98093.69
2022-12-29T22:33:37.247Z,98085.97
2022-12-29T22:36:05.281Z,98088.34
2022-12-29T22:38:32.740Z,98086.23
2022-12-29T22:41:00.375Z,98087.30
2022-12-29T22:43:29.488Z,98087.05
2022-12-29T22:46:04.869Z,98090.80
2022-12-29T22:48:33.828Z,98091.06
2022-12-29T22:51:02.222Z,98080.07
2022-12-29T22:53:30.314Z,98081.14
2022-12-29T22:56:09.253Z,98075.27
2022-12-29T22:58:42.312Z,98077.94
2022-12-29T23:01:12.160Z,98071.52
2022-12-29T23:03:40.436Z,98065.36
2022-12-29T23:06:11.819Z,98058.96
2022-12-29T23:08:39.977Z,98057.63
2022-12-29T23:11:10.920Z,98051.47
2022-12-29T23:13:40.589Z,98050.94
2022-12-29T23:16:08.428Z,98046.36
2022-12-29T23:18:37.338Z,98042.09
2022-12-29T23:21:05.662Z,98044.77
2022-12-29T23:23:52.382Z,98052.02
2022-12-29T23:26:30.369Z,98051.75
2022-12-29T23:29:00.551Z,98056.81
2022-12-29T23:31:30.502Z,98049.88
2022-12-29T23:34:03.725Z,98048.28
2022-12-29T23:36:31.517Z,98047.77
2022-12-29T23:38:59.452Z,98060.09
2022-12-29T23:41:27.715Z,98050.72
2022-12-29T23:43:55.542Z,98050.45
2022-12-29T23:46:29.591Z,98048.57
2022-12-29T23:48:57.458Z,98051.22
2022-12-29T23:51:25.718Z,98048.55
2022-12-29T23:53:53.373Z,98046.14
2022-12-29T23:56:22.958Z,98041.06
2022-12-29T23:58:51.429Z,98034.37
